createdAt,value
2023-02-20T00:00:18.191Z,88.26
2023-02-20T00:05:20.465Z,88.31
2023-02-20T00:10:24.092Z,88.40
2023-02-20T00:15:25.611Z,88.37
2023-02-20T00:20:27.720Z,88.39
2023-02-20T00:25:29.273Z,88.63
2023-02-20T00:30:30.873Z,88.74
2023-02-20T00:35:32.561Z,89.12
2023-02-20T00:40:34.031Z,88.92
2023-02-20T00:45:36.690Z,88.76
2023-02-20T00:50:38.148Z,89.00
2023-02-20T00:55:39.611Z,89.13
2023-02-20T01:00:41.081Z,89.21
2023-02-20T01:05:42.564Z,89.36
2023-02-20T01:10:44.122Z,89.18
2023-02-20T01:15:45.891Z,89.44
2023-02-20T01:20:47.602Z,89.25
2023-02-20T01:25:49.090Z,89.19
2023-02-20T01:30:50.566Z,89.39
2023-02-20T01:35:52.138Z,89.28
2023-02-20T01:40:56.290Z,89.15
2023-02-20T01:46:29.569Z,89.37
2023-02-20T01:51:35.837Z,89.25
2023-02-20T01:56:38.447Z,89.24
2023-02-20T02:01:40.675Z,89.34
2023-02-20T02:06:46.081Z,89.43
2023-02-20T02:11:49.040Z,89.39
2023-02-20T02:17:03.485Z,89.43
2023-02-20T02:22:32.160Z,89.23
2023-02-20T02:27:37.901Z,89.25
2023-02-20T02:33:07.073Z,89.28
2023-02-20T02:38:20.782Z,89.30
2023-02-20T02:43:43.315Z,89.17
2023-02-20T02:48:52.484Z,89.04
2023-02-20T02:54:15.482Z,89.14
2023-02-20T02:59:33.376Z,88.96
2023-02-20T03:04:38.193Z,88.79
2023-02-20T03:09:47.028Z,88.47
2023-02-20T03:15:16.910Z,88.55
2023-02-20T03:20:22.313Z,88.34
2023-02-20T03:25:44.375Z,88.32
2023-02-20T03:30:56.328Z,88.41
2023-02-20T03:36:19.838Z,88.45
2023-02-20T03:41:42.514Z,88.35
2023-02-20T03:46:48.474Z,88.57
2023-02-20T03:51:50.088Z,88.27
2023-02-20T03:57:10.562Z,88.35
2023-02-20T04:02:25.105Z,88.41
2023-02-20T04:07:35.539Z,88.56
2023-02-20T04:12:42.900Z,88.80
2023-02-20T04:17:50.454Z,88.84
2023-02-20T04:22:56.884Z,88.88
2023-02-20T04:27:58.654Z,88.95
2023-02-20T04:33:00.958Z,89.14
2023-02-20T04:38:02.971Z,89.34
2023-02-20T04:43:05.522Z,89.38
2023-02-20T04:48:07.239Z,89.44
2023-02-20T04:53:08.990Z,89.52
2023-02-20T04:58:10.759Z,89.52
2023-02-20T05:03:26.889Z,90.08
2023-02-20T05:08:31.216Z,89.96
2023-02-20T05:13:32.674Z,90.05
2023-02-20T05:18:34.631Z,90.30
2023-02-20T05:23:36.132Z,90.23
2023-02-20T05:28:39.710Z,90.37
2023-02-20T05:33:41.259Z,90.44
2023-02-20T05:38:47.755Z,90.71
2023-02-20T05:43:49.575Z,90.65
2023-02-20T05:48:52.300Z,90.83
2023-02-20T05:53:53.892Z,90.97
2023-02-20T05:58:55.731Z,91.11
2023-02-20T06:03:58.322Z,91.23
2023-02-20T06:08:59.921Z,90.98
2023-02-20T06:14:01.885Z,91.34
2023-02-20T06:19:05.248Z,91.05
2023-02-20T06:24:06.959Z,91.00
2023-02-20T06:29:08.624Z,91.01
2023-02-20T06:34:11.008Z,90.88
2023-02-20T06:39:14.052Z,91.06
2023-02-20T06:44:15.696Z,91.13
2023-02-20T06:49:17.250Z,91.39
2023-02-20T06:54:21.805Z,91.47
2023-02-20T06:59:23.704Z,91.62
2023-02-20T07:04:27.762Z,91.70
2023-02-20T07:09:29.594Z,91.72
2023-02-20T07:14:31.401Z,91.91
2023-02-20T07:19:33.034Z,91.79
2023-02-20T07:24:36.796Z,92.10
2023-02-20T07:29:41.336Z,91.95
2023-02-20T07:34:48.642Z,92.14
2023-02-20T07:39:59.396Z,92.18
2023-02-20T07:45:01.382Z,92.02
2023-02-20T07:50:03.651Z,92.30
2023-02-20T07:55:05.710Z,92.23
2023-02-20T08:00:07.976Z,92.23
2023-02-20T08:05:15.841Z,92.16
2023-02-20T08:10:20.230Z,92.30
2023-02-20T08:15:23.156Z,92.39
2023-02-20T08:20:24.965Z,92.27
2023-02-20T08:25:26.735Z,92.40
2023-02-20T08:30:28.750Z,92.42
2023-02-20T08:35:30.374Z,92.44
2023-02-20T08:40:32.567Z,92.64
2023-02-20T08:45:34.211Z,92.59
2023-02-20T08:50:36.204Z,92.64
2023-02-20T08:55:37.878Z,92.65
2023-02-20T09:00:39.601Z,92.74
2023-02-20T09:05:42.200Z,92.72
2023-02-20T09:10:44.060Z,92.83
2023-02-20T09:15:45.851Z,92.79
2023-02-20T09:20:48.153Z,92.81
2023-02-20T09:25:50.824Z,92.80
2023-02-20T09:30:54.758Z,92.94
2023-02-20T09:35:56.681Z,92.96
2023-02-20T09:41:00.305Z,92.74
2023-02-20T09:46:23.213Z,92.72
2023-02-20T09:51:27.669Z,92.77
2023-02-20T09:56:33.844Z,92.50
2023-02-20T10:01:42.206Z,92.50
2023-02-20T10:06:45.291Z,92.50
2023-02-20T10:12:14.128Z,92.49
2023-02-20T10:17:27.580Z,92.55
2023-02-20T10:22:44.221Z,92.47
2023-02-20T10:27:55.211Z,92.27
2023-02-20T10:33:22.430Z,92.33
2023-02-20T10:38:30.012Z,92.07
2023-02-20T10:43:40.736Z,92.02
2023-02-20T10:48:45.528Z,92.25
2023-02-20T10:53:55.149Z,92.42
2023-02-20T10:59:10.595Z,92.40
2023-02-20T11:04:25.495Z,92.35
2023-02-20T11:09:29.898Z,92.58
2023-02-20T11:14:52.199Z,92.41
2023-02-20T11:19:57.101Z,92.61
2023-02-20T11:25:14.977Z,92.70
2023-02-20T11:30:27.363Z,92.75
2023-02-20T11:35:35.532Z,93.02
2023-02-20T11:40:37.178Z,93.00
2023-02-20T11:45:38.949Z,93.13
2023-02-20T11:50:46.541Z,93.24
2023-02-20T11:55:59.926Z,93.10
2023-02-20T12:01:01.900Z,93.03
2023-02-20T12:06:32.431Z,92.88
2023-02-20T12:11:33.995Z,92.73
2023-02-20T12:16:56.919Z,92.40
2023-02-20T12:22:11.646Z,92.19
2023-02-20T12:27:48.272Z,92.21
2023-02-20T12:33:18.943Z,91.63
2023-02-20T12:38:46.056Z,91.42
2023-02-20T12:44:20.362Z,91.26
2023-02-20T12:49:51.391Z,91.13
2023-02-20T12:55:00.554Z,91.13
2023-02-20T13:00:14.437Z,90.90
2023-02-20T13:05:22.367Z,90.93
2023-02-20T13:11:02.602Z,91.38
2023-02-20T13:16:17.736Z,91.42
2023-02-20T13:21:24.001Z,91.55
2023-02-20T13:26:34.659Z,92.02
2023-02-20T13:31:36.175Z,92.34
2023-02-20T13:36:42.976Z,92.53
2023-02-20T13:41:53.863Z,93.05
2023-02-20T13:47:02.479Z,93.16
2023-02-20T13:52:29.829Z,93.27
2023-02-20T13:57:36.134Z,92.99
2023-02-20T14:02:41.631Z,93.06
2023-02-20T14:07:46.002Z,93.07
2023-02-20T14:13:03.471Z,92.48
2023-02-20T14:18:14.082Z,92.56
2023-02-20T14:23:26.204Z,92.32
2023-02-20T14:28:30.600Z,92.27
2023-02-20T14:33:33.576Z,92.24
2023-02-20T14:39:03.550Z,92.32
2023-02-20T14:44:13.825Z,92.40
2023-02-20T14:49:25.088Z,92.02
2023-02-20T14:54:29.925Z,92.01
2023-02-20T14:59:36.949Z,92.03
2023-02-20T15:04:47.167Z,92.02
2023-02-20T15:09:52.950Z,92.08
2023-02-20T15:15:07.680Z,91.87
2023-02-20T15:20:34.983Z,91.91
2023-02-20T15:25:36.936Z,91.75
2023-02-20T15:31:00.151Z,91.74
2023-02-20T15:36:03.564Z,91.61
2023-02-20T15:41:06.575Z,91.83
2023-02-20T15:46:08.188Z,91.58
2023-02-20T15:51:11.818Z,91.54
2023-02-20T15:56:14.345Z,91.39
2023-02-20T16:01:17.040Z,91.61
2023-02-20T16:06:20.163Z,91.50
2023-02-20T16:11:25.414Z,91.60
2023-02-20T16:16:37.982Z,91.85
2023-02-20T16:21:44.896Z,91.77
2023-02-20T16:26:54.108Z,92.31
2023-02-20T16:31:55.772Z,92.59
2023-02-20T16:37:01.780Z,92.86
2023-02-20T16:47:51.332Z,93.74
2023-02-20T16:53:32.942Z,94.11
2023-02-20T16:58:53.487Z,94.16
2023-02-20T17:04:26.795Z,94.22
2023-02-20T17:09:49.020Z,94.32
2023-02-20T17:14:55.909Z,94.55
2023-02-20T17:19:59.698Z,94.80
2023-02-20T17:25:34.419Z,95.14
2023-02-20T17:38:13.778Z,95.63
2023-02-20T20:49:17.182Z,96.84
2023-02-20T20:55:15.538Z,96.59
2023-02-20T21:12:45.196Z,96.40
2023-02-20T21:17:56.249Z,96.37
2023-02-20T21:29:07.822Z,95.78
2023-02-20T21:46:20.707Z,95.31
2023-02-20T21:51:42.147Z,95.25
2023-02-20T22:08:51.112Z,94.64
2023-02-20T22:14:29.611Z,94.70
2023-02-20T22:20:15.421Z,94.84
2023-02-20T22:26:28.584Z,95.25
2023-02-20T22:32:03.290Z,95.39
2023-02-20T22:37:53.896Z,95.51
2023-02-20T22:43:37.629Z,95.72
2023-02-20T22:49:00.759Z,95.93
2023-02-20T22:54:38.039Z,96.08
2023-02-20T23:00:42.207Z,96.32
2023-02-20T23:06:17.546Z,96.45
2023-02-20T23:18:37.039Z,96.73
2023-02-20T23:29:57.253Z,97.29
